Terminal Aerodrome Forecast
Issued by NWS Pocatello, ID

Home | Current Version | Previous Version | Text Only | Print | Product List | Glossary On
Versions: 1 2 3 4 5 6 7 8 9 10 11 12
000
FTUS45 KPIH 050520
TAFIDA
TAF
KIDA 050520Z 0506/0606 16007KT P6SM FEW110 SCT160 BKN200
     FM050900 21010KT P6SM SCT080 BKN120 BKN160
     FM051500 24015G25KT P6SM VCSH SCT060 BKN100 OVC140
     FM052000 24015KT P6SM VCTS BKN060CB BKN100
     FM060200 22008KT P6SM OVC090=

USA.gov is the U.S. government's official web portal to all federal, state and local government web resources and services.